Terminal Aerodrome Forecast
Issued by NWS

Home | Current Version | Previous Version | Text Only | Print | Product List | Glossary On
Versions: 1 2 3 4 5 6 7 8 9 10 11 12 13 14
000
FTUS43 KDTX 301124
TAFPTK
TAF
KPTK 301124Z 3012/3112 05005KT 6SM -SHRA OVC040
      TEMPO 3012/3014 2SM TSRA OVC025CB
     FM301400 07008KT P6SM VCSH BKN050 BKN080 PROB30 3021/3101 4SM
      TSRA OVC030CB
     FM310200 04005KT P6SM SCT040 BKN080
     FM310800 VRB03KT 5SM BR SCT020=

USA.gov is the U.S. government's official web portal to all federal, state and local government web resources and services.